Главная страница
METAR-TAF:

METAR-TAF

Аэропорты :

Прага, Чехия

широта: 50-06N, долгота: 014-15E, высота над уровнем моря: 365 м

Текущие метеонаблюдения

Эта сводка был подготовлена 25 минут назад, в 02:07 UTC
Ветер 5 Узел от северный
Температура 6°C
Влажность 87%
Давление 1026 hPa
Видимость: 7000 м
Рассеянная облачность на высоте 1900 фута

METAR: LKPR 240207Z 36005KT 7000 BKN019 06/04 Q1026 RMK REG QNH 1021

Время: 03:32 (02:32 UTC)

Прогноз

Эта сводка был подготовлена 3 часа и 32 минут назад, в 23:00 UTC
Прогноз действительный с 24-го 00 UTC до 25-го 06 UTC
Ветер 8 Узел от северо-северо-восточный
Видимость 10 км и более
Нет облачности ниже 1500 м, и нет кучево-дождевой облачности
изменения
С 24-го 02 UTC до 24-го 05 UTC
Видимость 10 км и более
Рассеянная облачность на высоте 3500 фута
изменения
С 24-го 15 UTC до 24-го 18 UTC
Ветер 8 Узел от северо-западный
Отдельные облака на высоте 4000 фута

TAF: LKPR 232300Z 2400/2506 02008KT CAVOK BECMG 2402/2405 9999 BKN035 BECMG 2415/2418 31008KT SCT040

Метеонаблюдения и прогнозы для более 4000 аэропортов (сводки METAR и TAF).

Имеющиеся станции представлены на карте желтыми и красными точками.

Чтобы увидеть название станции, наведите на нее мышь.

Затем щелкните, чтобы увидеть метеонаблюдения и метеопрогнозы.

Управление картой: чтобы увеличить масштаб, щелкните зеленые кнопки с черным крестиком; чтобы уменьшить масштаб, щелкните зеленую кнопку с тире; для просмотра соседних карт щелкайте зеленые стрелки.


METAR-TAF: